Time;durP1;ratioP1;P1;durP2;ratioP2;P2;SDS_P1;SDS_P2;PMS_P1;PMS_P2;Temp;Humidity;BMP_temperature;BMP_pressure;BME280_temperature;BME280_humidity;BME280_pressure;Samples;Min_cycle;Max_cycle;Signal;HPM_P1;HPM_P2
2021/09/16 00:01:06;;;;;;;34.90;18.90;;;;;;;;;;5031884;28;20095;-84
2021/09/16 00:03:31;;;;;;;31.35;18.42;;;;;;;;;;5032549;28;20060;-84
2021/09/16 00:05:56;;;;;;;34.42;21.70;;;;;;;;;;5033133;28;20163;-84
2021/09/16 00:08:22;;;;;;;42.03;22.35;;;;;;;;;;5033822;28;20040;-84
2021/09/16 00:10:48;;;;;;;38.13;22.20;;;;;;;;;;5032873;28;20032;-84
2021/09/16 00:13:13;;;;;;;36.22;20.17;;;;;;;;;;5032196;28;20444;-85
2021/09/16 00:15:38;;;;;;;44.40;24.92;;;;;;;;;;5032165;28;20037;-84
2021/09/16 00:18:04;;;;;;;27.08;19.05;;;;;;;;;;5030615;28;20496;-84
2021/09/16 00:20:30;;;;;;;41.72;24.02;;;;;;;;;;5033052;28;20492;-84
2021/09/16 00:22:55;;;;;;;43.58;23.67;;;;;;;;;;5033661;28;20028;-85
2021/09/16 00:25:20;;;;;;;40.50;24.20;;;;;;;;;;5035953;28;20017;-84
2021/09/16 00:27:46;;;;;;;35.50;22.38;;;;;;;;;;5031254;28;20116;-84
2021/09/16 00:30:12;;;;;;;44.33;24.83;;;;;;;;;;5030587;28;20037;-84
2021/09/16 00:32:38;;;;;;;27.50;19.80;;;;;;;;;;5031720;28;20036;-85
2021/09/16 00:35:04;;;;;;;49.50;29.05;;;;;;;;;;5031099;28;20025;-85
2021/09/16 00:37:29;;;;;;;38.88;23.98;;;;;;;;;;5031967;28;20026;-85
2021/09/16 00:39:54;;;;;;;41.83;23.75;;;;;;;;;;5032339;28;20652;-84
2021/09/16 00:42:20;;;;;;;46.87;23.73;;;;;;;;;;5034131;28;20083;-84
2021/09/16 00:44:45;;;;;;;35.30;20.58;;;;;;;;;;5033191;28;20305;-84
2021/09/16 00:47:10;;;;;;;40.30;22.85;;;;;;;;;;5031514;28;20104;-85
2021/09/16 00:49:36;;;;;;;39.53;23.70;;;;;;;;;;5030581;28;20025;-84
2021/09/16 00:52:01;;;;;;;29.77;21.90;;;;;;;;;;5032673;28;20022;-85
2021/09/16 00:54:27;;;;;;;28.60;19.10;;;;;;;;;;5032032;28;20272;-84
2021/09/16 00:56:53;;;;;;;19.88;13.95;;;;;;;;;;5032646;28;20033;-84
2021/09/16 00:59:20;;;;;;;17.75;13.68;;;;;;;;;;5030951;28;20071;-85
2021/09/16 01:01:45;;;;;;;19.20;13.88;;;;;;;;;;5032857;28;20445;-85
2021/09/16 01:04:11;;;;;;;32.53;18.65;;;;;;;;;;5030109;28;20087;-84
2021/09/16 01:06:36;;;;;;;23.25;12.45;;;;;;;;;;5030393;28;20022;-85
2021/09/16 01:09:01;;;;;;;24.23;14.80;;;;;;;;;;5032226;28;20108;-84
2021/09/16 01:11:27;;;;;;;21.55;13.07;;;;;;;;;;5030727;28;20025;-84
2021/09/16 01:13:52;;;;;;;24.45;13.48;;;;;;;;;;5033041;28;20022;-84
2021/09/16 01:16:18;;;;;;;31.15;15.60;;;;;;;;;;5031395;28;20048;-84
2021/09/16 01:18:43;;;;;;;19.73;13.70;;;;;;;;;;5034944;28;20033;-84
2021/09/16 01:21:09;;;;;;;25.95;15.05;;;;;;;;;;5030106;28;20017;-84
2021/09/16 01:23:34;;;;;;;13.73;10.80;;;;;;;;;;5032036;28;20049;-84
2021/09/16 01:25:59;;;;;;;18.23;9.88;;;;;;;;;;5030659;28;20469;-82
2021/09/16 01:28:25;;;;;;;13.93;9.82;;;;;;;;;;5033700;28;20497;-81
2021/09/16 01:30:50;;;;;;;13.05;8.30;;;;;;;;;;5032694;28;20025;-82
2021/09/16 01:33:15;;;;;;;15.20;8.52;;;;;;;;;;5032249;28;20025;-82
2021/09/16 01:35:40;;;;;;;12.43;7.50;;;;;;;;;;5031977;28;20021;-82
2021/09/16 01:38:06;;;;;;;15.10;9.07;;;;;;;;;;5030850;28;20025;-81
2021/09/16 01:40:31;;;;;;;12.00;7.03;;;;;;;;;;5031295;28;20276;-82
2021/09/16 01:42:56;;;;;;;14.40;7.63;;;;;;;;;;5031827;28;20063;-82
2021/09/16 01:45:23;;;;;;;11.32;6.65;;;;;;;;;;5030955;28;20018;-82
2021/09/16 01:47:49;;;;;;;11.13;6.45;;;;;;;;;;5032487;28;20504;-82
2021/09/16 01:50:16;;;;;;;11.00;5.47;;;;;;;;;;5033092;28;20022;-82
2021/09/16 01:52:41;;;;;;;12.70;6.00;;;;;;;;;;5030595;28;20060;-83
2021/09/16 01:55:06;;;;;;;10.80;5.40;;;;;;;;;;5029883;28;20052;-82
2021/09/16 01:57:32;;;;;;;15.32;5.85;;;;;;;;;;5030938;28;20710;-82
2021/09/16 01:59:57;;;;;;;9.65;5.00;;;;;;;;;;5032423;28;20100;-82
2021/09/16 02:02:22;;;;;;;8.02;4.88;;;;;;;;;;5032175;28;20026;-82
2021/09/16 02:04:48;;;;;;;12.90;5.03;;;;;;;;;;5030257;28;20026;-82
2021/09/16 02:07:13;;;;;;;12.40;5.28;;;;;;;;;;5032768;28;20030;-82
2021/09/16 02:09:38;;;;;;;8.57;4.57;;;;;;;;;;5029411;28;20029;-82
2021/09/16 02:12:03;;;;;;;7.13;4.20;;;;;;;;;;5029680;28;20268;-82
2021/09/16 02:14:29;;;;;;;13.68;4.45;;;;;;;;;;5030988;28;20021;-82
2021/09/16 02:16:54;;;;;;;10.20;4.70;;;;;;;;;;5029502;28;20064;-82
2021/09/16 02:19:19;;;;;;;18.23;5.23;;;;;;;;;;5031335;28;20536;-82
2021/09/16 02:21:44;;;;;;;7.40;4.28;;;;;;;;;;5031219;28;20268;-83
2021/09/16 02:24:10;;;;;;;12.40;4.47;;;;;;;;;;5034267;28;20029;-82
2021/09/16 02:26:35;;;;;;;10.93;4.22;;;;;;;;;;5028646;28;20025;-82
2021/09/16 02:29:00;;;;;;;10.75;3.95;;;;;;;;;;5030799;28;20017;-82
2021/09/16 02:31:26;;;;;;;13.10;4.20;;;;;;;;;;5031252;28;20021;-82
2021/09/16 02:33:51;;;;;;;13.13;3.92;;;;;;;;;;5030992;28;20838;-82
2021/09/16 02:36:16;;;;;;;10.93;3.42;;;;;;;;;;5030433;28;20118;-82
2021/09/16 02:38:42;;;;;;;10.38;3.42;;;;;;;;;;5030399;28;20481;-82
2021/09/16 02:41:07;;;;;;;14.55;3.70;;;;;;;;;;5034701;28;20013;-82
2021/09/16 02:43:32;;;;;;;8.55;3.55;;;;;;;;;;5033217;28;20829;-82
2021/09/16 02:45:58;;;;;;;14.43;3.53;;;;;;;;;;5033801;28;20031;-82
2021/09/16 02:48:23;;;;;;;12.00;3.25;;;;;;;;;;5033463;28;20021;-82
2021/09/16 02:50:49;;;;;;;6.55;3.33;;;;;;;;;;5035489;28;20112;-82
2021/09/16 02:53:15;;;;;;;6.80;2.72;;;;;;;;;;5033210;28;20440;-82
2021/09/16 02:55:40;;;;;;;14.30;3.67;;;;;;;;;;5034834;28;20535;-82
2021/09/16 02:58:05;;;;;;;15.75;2.90;;;;;;;;;;5037051;28;20044;-82
2021/09/16 03:00:31;;;;;;;9.00;3.20;;;;;;;;;;5032064;28;20508;-82
2021/09/16 03:02:56;;;;;;;10.93;3.85;;;;;;;;;;5032890;28;20268;-82
2021/09/16 03:05:21;;;;;;;10.23;2.93;;;;;;;;;;5034438;28;20034;-82
2021/09/16 03:07:46;;;;;;;12.80;3.03;;;;;;;;;;5033214;28;20762;-83
2021/09/16 03:10:13;;;;;;;8.88;2.83;;;;;;;;;;5032872;28;20414;-82
2021/09/16 03:12:38;;;;;;;10.48;3.10;;;;;;;;;;5034864;28;20025;-81
2021/09/16 03:15:04;;;;;;;8.63;3.67;;;;;;;;;;5037976;28;20025;-81
2021/09/16 03:17:29;;;;;;;15.73;3.55;;;;;;;;;;5031464;28;20103;-81
2021/09/16 03:19:54;;;;;;;9.25;2.90;;;;;;;;;;5031817;28;20045;-82
2021/09/16 03:22:20;;;;;;;12.98;2.70;;;;;;;;;;5035145;28;20385;-82
2021/09/16 03:24:45;;;;;;;9.32;2.60;;;;;;;;;;5034354;28;20079;-82
2021/09/16 03:27:10;;;;;;;17.23;3.00;;;;;;;;;;5034051;28;20052;-82
2021/09/16 03:29:36;;;;;;;11.82;2.50;;;;;;;;;;5032974;28;20752;-82
2021/09/16 03:32:01;;;;;;;10.27;3.00;;;;;;;;;;5034764;28;20537;-82
2021/09/16 03:34:26;;;;;;;11.50;3.10;;;;;;;;;;5033138;28;20393;-82
2021/09/16 03:36:51;;;;;;;7.53;2.47;;;;;;;;;;5033293;28;20260;-81
2021/09/16 03:39:17;;;;;;;14.35;2.53;;;;;;;;;;5033039;28;20043;-82
2021/09/16 03:41:42;;;;;;;12.03;2.67;;;;;;;;;;5031828;28;20024;-82
2021/09/16 03:44:07;;;;;;;15.38;2.75;;;;;;;;;;5032865;28;20256;-82
2021/09/16 03:46:32;;;;;;;12.17;2.97;;;;;;;;;;5032746;28;20156;-82
2021/09/16 03:48:58;;;;;;;10.30;2.30;;;;;;;;;;5033291;28;20021;-82
2021/09/16 03:51:23;;;;;;;8.43;2.30;;;;;;;;;;5035375;28;20108;-82
2021/09/16 03:53:48;;;;;;;13.20;2.38;;;;;;;;;;5031490;28;20025;-82
2021/09/16 03:56:13;;;;;;;9.80;2.30;;;;;;;;;;5031239;28;20031;-82
2021/09/16 03:58:39;;;;;;;16.02;2.20;;;;;;;;;;5030660;28;20288;-82
2021/09/16 04:01:04;;;;;;;7.47;2.25;;;;;;;;;;5031443;28;20053;-82
2021/09/16 04:03:29;;;;;;;9.03;2.07;;;;;;;;;;5032412;28;20027;-82
2021/09/16 04:05:55;;;;;;;11.18;2.78;;;;;;;;;;5030699;28;20270;-82
2021/09/16 04:08:20;;;;;;;9.88;2.40;;;;;;;;;;5030868;28;20021;-83
2021/09/16 04:10:45;;;;;;;14.68;2.30;;;;;;;;;;5031899;28;20027;-82
2021/09/16 04:13:11;;;;;;;13.82;2.05;;;;;;;;;;5032082;28;20485;-82
2021/09/16 04:15:36;;;;;;;13.13;2.55;;;;;;;;;;5033018;28;20026;-82
2021/09/16 04:18:01;;;;;;;10.13;1.67;;;;;;;;;;5030274;28;20063;-82
2021/09/16 04:20:26;;;;;;;14.05;1.98;;;;;;;;;;5031020;28;20317;-82
2021/09/16 04:22:52;;;;;;;15.02;2.30;;;;;;;;;;5030627;28;20017;-82
2021/09/16 04:25:17;;;;;;;12.40;1.92;;;;;;;;;;5030956;28;20052;-82
2021/09/16 04:27:42;;;;;;;15.48;2.10;;;;;;;;;;5032401;28;20025;-82
2021/09/16 04:30:08;;;;;;;11.47;1.90;;;;;;;;;;5030291;28;20026;-82
2021/09/16 04:32:33;;;;;;;8.50;1.80;;;;;;;;;;5030683;28;20025;-82
2021/09/16 04:34:59;;;;;;;18.40;1.58;;;;;;;;;;5032007;28;20033;-82
2021/09/16 04:37:24;;;;;;;11.32;2.20;;;;;;;;;;5032029;28;20025;-82
2021/09/16 04:39:49;;;;;;;5.75;1.38;;;;;;;;;;5030678;28;20510;-83
2021/09/16 04:42:14;;;;;;;6.05;1.95;;;;;;;;;;5030758;28;20026;-82
2021/09/16 04:44:40;;;;;;;8.10;1.67;;;;;;;;;;5030133;28;20028;-82
2021/09/16 04:47:05;;;;;;;7.30;1.60;;;;;;;;;;5031491;28;20033;-82
2021/09/16 04:49:30;;;;;;;6.93;1.90;;;;;;;;;;5032012;28;20433;-82
2021/09/16 04:51:56;;;;;;;6.00;1.38;;;;;;;;;;5030695;28;20279;-82
2021/09/16 04:54:21;;;;;;;9.37;1.70;;;;;;;;;;5032190;28;20032;-82
2021/09/16 04:56:46;;;;;;;7.18;1.17;;;;;;;;;;5032534;28;20256;-82
2021/09/16 04:59:11;;;;;;;8.90;1.58;;;;;;;;;;5031294;28;20025;-83
2021/09/16 05:01:37;;;;;;;10.63;2.22;;;;;;;;;;5029228;28;20469;-85
2021/09/16 05:04:02;;;;;;;5.90;1.60;;;;;;;;;;5029670;28;20416;-85
2021/09/16 05:06:28;;;;;;;7.25;1.50;;;;;;;;;;5031026;28;20310;-84
2021/09/16 05:08:53;;;;;;;10.50;1.70;;;;;;;;;;5031520;28;20033;-85
2021/09/16 05:11:18;;;;;;;6.60;1.37;;;;;;;;;;5033583;28;20025;-85
2021/09/16 05:13:43;;;;;;;7.15;1.33;;;;;;;;;;5029662;28;20829;-85
2021/09/16 05:16:09;;;;;;;9.70;1.60;;;;;;;;;;5030544;28;20060;-84
2021/09/16 05:18:34;;;;;;;5.65;1.73;;;;;;;;;;5030961;28;20287;-84
2021/09/16 05:20:59;;;;;;;7.80;1.65;;;;;;;;;;5030974;28;20022;-85
2021/09/16 05:23:24;;;;;;;8.77;1.42;;;;;;;;;;5030901;28;20025;-85
2021/09/16 05:25:50;;;;;;;7.97;1.52;;;;;;;;;;5029335;28;20027;-85
2021/09/16 05:28:15;;;;;;;6.97;1.70;;;;;;;;;;5029874;28;20029;-85
2021/09/16 05:30:40;;;;;;;6.47;1.65;;;;;;;;;;5030475;28;20665;-85
2021/09/16 05:33:09;;;;;;;9.13;1.48;;;;;;;;;;5031684;28;20092;-85
2021/09/16 05:35:35;;;;;;;8.05;1.80;;;;;;;;;;5031444;28;20156;-85
2021/09/16 05:38:00;;;;;;;7.13;1.50;;;;;;;;;;5030424;28;20412;-85
2021/09/16 05:40:25;;;;;;;7.90;1.90;;;;;;;;;;5030456;28;20029;-85
2021/09/16 05:42:51;;;;;;;10.68;2.45;;;;;;;;;;5030754;28;20018;-85
2021/09/16 05:45:16;;;;;;;8.00;1.60;;;;;;;;;;5030785;28;20025;-85
2021/09/16 05:47:41;;;;;;;7.53;2.03;;;;;;;;;;5031500;28;20021;-84
2021/09/16 05:50:06;;;;;;;6.10;1.60;;;;;;;;;;5031078;28;20469;-84
2021/09/16 05:52:32;;;;;;;7.20;1.92;;;;;;;;;;5031025;28;20275;-84
2021/09/16 05:54:57;;;;;;;8.82;1.92;;;;;;;;;;5030450;28;20536;-83
2021/09/16 05:57:22;;;;;;;8.85;1.63;;;;;;;;;;5030511;28;20026;-83
2021/09/16 05:59:48;;;;;;;13.43;2.28;;;;;;;;;;5031539;28;20934;-83
2021/09/16 06:02:13;;;;;;;10.93;2.40;;;;;;;;;;5028762;28;20033;-83
2021/09/16 06:04:38;;;;;;;10.65;2.33;;;;;;;;;;5029102;28;20028;-83
2021/09/16 06:07:04;;;;;;;8.33;1.90;;;;;;;;;;5031032;28;20056;-83
2021/09/16 06:09:32;;;;;;;12.53;2.50;;;;;;;;;;5031544;28;20264;-83
2021/09/16 06:11:59;;;;;;;8.65;2.47;;;;;;;;;;5030743;28;20262;-84
2021/09/16 06:14:25;;;;;;;7.28;2.45;;;;;;;;;;5029283;28;20068;-83
2021/09/16 06:16:52;;;;;;;10.30;2.03;;;;;;;;;;5032327;28;20068;-84
2021/09/16 06:19:17;;;;;;;7.40;1.80;;;;;;;;;;5032986;28;20033;-83
2021/09/16 06:21:43;;;;;;;14.73;2.17;;;;;;;;;;5033544;28;20026;-83
2021/09/16 06:24:08;;;;;;;9.27;2.30;;;;;;;;;;5032866;28;20260;-83
2021/09/16 06:26:33;;;;;;;8.73;1.98;;;;;;;;;;5034276;28;20028;-83
2021/09/16 06:28:59;;;;;;;16.20;2.22;;;;;;;;;;5034403;28;20048;-83
2021/09/16 06:31:24;;;;;;;9.25;2.10;;;;;;;;;;5033195;28;20388;-83
2021/09/16 06:33:49;;;;;;;14.05;2.00;;;;;;;;;;5034935;28;20032;-83
2021/09/16 06:36:14;;;;;;;8.97;2.33;;;;;;;;;;5033642;28;20025;-83
2021/09/16 06:38:40;;;;;;;12.82;1.98;;;;;;;;;;5032802;28;20329;-83
2021/09/16 06:41:05;;;;;;;9.33;1.83;;;;;;;;;;5032851;28;20496;-83
2021/09/16 06:43:31;;;;;;;6.78;1.95;;;;;;;;;;5035226;28;20256;-84
2021/09/16 06:45:56;;;;;;;10.05;2.58;;;;;;;;;;5032255;28;20018;-84
2021/09/16 06:48:21;;;;;;;9.43;2.15;;;;;;;;;;5031588;28;20075;-83
2021/09/16 06:50:47;;;;;;;6.15;1.70;;;;;;;;;;5032575;28;20076;-83
2021/09/16 06:53:12;;;;;;;14.07;2.50;;;;;;;;;;5032602;28;20033;-83
2021/09/16 06:55:37;;;;;;;8.63;2.25;;;;;;;;;;5034397;28;20377;-84
2021/09/16 06:58:02;;;;;;;8.77;2.45;;;;;;;;;;5034831;28;20668;-83
2021/09/16 07:00:28;;;;;;;8.88;2.50;;;;;;;;;;5033073;28;20049;-83
2021/09/16 07:02:53;;;;;;;7.53;1.90;;;;;;;;;;5033568;28;20025;-83
2021/09/16 07:05:19;;;;;;;8.65;2.60;;;;;;;;;;5034132;28;20041;-84
2021/09/16 07:07:44;;;;;;;10.20;2.17;;;;;;;;;;5033031;28;20036;-84
2021/09/16 07:10:10;;;;;;;8.00;1.83;;;;;;;;;;5033695;28;20034;-83
2021/09/16 07:12:35;;;;;;;9.52;2.03;;;;;;;;;;5033795;28;20260;-83
2021/09/16 07:15:00;;;;;;;6.85;1.70;;;;;;;;;;5032456;28;20152;-84
2021/09/16 07:17:26;;;;;;;6.47;1.65;;;;;;;;;;5033851;28;20069;-84
2021/09/16 07:19:51;;;;;;;4.63;1.60;;;;;;;;;;5033540;28;20040;-83
2021/09/16 07:22:16;;;;;;;5.13;1.80;;;;;;;;;;5032816;28;20449;-83
2021/09/16 07:24:41;;;;;;;5.90;1.65;;;;;;;;;;5032212;28;20018;-83
2021/09/16 07:27:06;;;;;;;10.32;1.85;;;;;;;;;;5033352;28;20234;-84
2021/09/16 07:29:32;;;;;;;6.13;1.97;;;;;;;;;;5032833;28;20461;-84
2021/09/16 07:31:57;;;;;;;6.25;1.58;;;;;;;;;;5032185;28;20093;-83
2021/09/16 07:34:22;;;;;;;8.10;2.00;;;;;;;;;;5032386;28;20052;-83
2021/09/16 07:36:48;;;;;;;4.97;2.17;;;;;;;;;;5031792;28;20025;-83
2021/09/16 07:39:18;;;;;;;5.05;1.80;;;;;;;;;;5032237;28;20052;-84
2021/09/16 07:41:43;;;;;;;7.30;2.08;;;;;;;;;;5031982;28;20250;-84
2021/09/16 07:44:09;;;;;;;10.20;1.70;;;;;;;;;;5033233;28;20049;-84
2021/09/16 07:46:34;;;;;;;7.00;1.83;;;;;;;;;;5032452;28;20037;-83
2021/09/16 07:48:59;;;;;;;8.77;1.80;;;;;;;;;;5032929;28;20037;-83
2021/09/16 07:51:25;;;;;;;8.85;1.88;;;;;;;;;;5032813;28;20288;-83
2021/09/16 07:53:50;;;;;;;9.18;1.80;;;;;;;;;;5030997;28;20024;-83
2021/09/16 07:56:16;;;;;;;8.85;3.08;;;;;;;;;;5030761;28;20053;-83
2021/09/16 07:58:44;;;;;;;8.57;2.40;;;;;;;;;;5031135;28;20021;-84
2021/09/16 08:01:10;;;;;;;5.35;1.30;;;;;;;;;;5033179;28;20104;-83
2021/09/16 08:03:35;;;;;;;8.85;1.48;;;;;;;;;;5032259;28;20064;-83
2021/09/16 08:06:01;;;;;;;7.75;1.50;;;;;;;;;;5030228;28;20021;-84
2021/09/16 08:08:26;;;;;;;6.17;2.00;;;;;;;;;;5030661;28;20028;-83
2021/09/16 08:10:51;;;;;;;8.00;1.10;;;;;;;;;;5032111;28;20022;-83
2021/09/16 08:13:16;;;;;;;7.87;2.03;;;;;;;;;;5032386;28;20029;-83
2021/09/16 08:15:41;;;;;;;7.97;1.40;;;;;;;;;;5031282;28;20026;-83
2021/09/16 08:18:07;;;;;;;4.03;1.07;;;;;;;;;;5029934;28;20284;-83
2021/09/16 08:20:37;;;;;;;2.88;1.02;;;;;;;;;;5031155;28;20831;-84
2021/09/16 08:23:03;;;;;;;6.65;1.38;;;;;;;;;;5030650;28;20064;-83
2021/09/16 08:25:28;;;;;;;6.83;1.67;;;;;;;;;;5032526;28;20053;-84
2021/09/16 08:27:54;;;;;;;5.78;1.17;;;;;;;;;;5031156;28;20263;-83
2021/09/16 08:30:19;;;;;;;9.88;2.13;;;;;;;;;;5031331;28;20048;-84
2021/09/16 08:32:44;;;;;;;8.18;1.65;;;;;;;;;;5030588;28;20025;-83
2021/09/16 08:35:11;;;;;;;8.75;1.45;;;;;;;;;;5030121;28;20079;-83
2021/09/16 08:37:36;;;;;;;8.15;1.67;;;;;;;;;;5031971;28;20041;-83
2021/09/16 08:40:03;;;;;;;7.45;1.50;;;;;;;;;;5028944;28;20549;-83
2021/09/16 08:42:28;;;;;;;10.40;2.47;;;;;;;;;;5032147;28;20129;-83
2021/09/16 08:44:54;;;;;;;12.85;2.08;;;;;;;;;;5030619;28;20553;-83
2021/09/16 08:47:20;;;;;;;7.63;1.75;;;;;;;;;;5030348;28;20025;-83
2021/09/16 08:49:46;;;;;;;5.82;1.50;;;;;;;;;;5032934;28;20025;-83
2021/09/16 08:52:12;;;;;;;8.65;2.15;;;;;;;;;;5031045;28;20029;-84
2021/09/16 08:54:38;;;;;;;9.25;1.60;;;;;;;;;;5030269;28;20438;-83
2021/09/16 08:57:04;;;;;;;6.78;1.38;;;;;;;;;;5032231;28;20025;-83
2021/09/16 08:59:30;;;;;;;5.43;1.40;;;;;;;;;;5030305;28;20032;-83
2021/09/16 09:01:55;;;;;;;9.45;1.58;;;;;;;;;;5030600;28;20021;-83
2021/09/16 09:04:21;;;;;;;8.93;1.50;;;;;;;;;;5029828;28;20444;-83
2021/09/16 09:06:46;;;;;;;8.45;1.40;;;;;;;;;;5031585;28;20821;-83
2021/09/16 09:09:13;;;;;;;7.45;1.23;;;;;;;;;;5032359;28;20043;-84
2021/09/16 09:11:48;;;;;;;4.72;1.92;;;;;;;;;;5033376;28;20034;-84
2021/09/16 09:14:16;;;;;;;6.25;1.73;;;;;;;;;;5030937;28;20033;-83
2021/09/16 09:16:41;;;;;;;4.13;1.33;;;;;;;;;;5031504;28;20138;-83
2021/09/16 09:19:14;;;;;;;6.30;1.30;;;;;;;;;;5030295;28;20453;-83
2021/09/16 09:21:39;;;;;;;7.07;1.88;;;;;;;;;;5030053;28;20025;-83
2021/09/16 09:24:05;;;;;;;6.85;1.95;;;;;;;;;;5032668;28;20052;-84
2021/09/16 09:26:32;;;;;;;7.63;2.47;;;;;;;;;;5029460;28;20024;-84
2021/09/16 09:29:06;;;;;;;6.05;2.15;;;;;;;;;;5031604;28;20263;-83
2021/09/16 09:31:32;;;;;;;7.22;1.60;;;;;;;;;;5030122;28;20072;-84
2021/09/16 09:33:58;;;;;;;14.18;2.65;;;;;;;;;;5029551;28;20033;-84
2021/09/16 09:36:23;;;;;;;7.60;1.90;;;;;;;;;;5031265;28;20033;-84
2021/09/16 09:38:59;;;;;;;9.50;1.95;;;;;;;;;;5031341;28;20390;-83
2021/09/16 09:41:29;;;;;;;7.28;2.03;;;;;;;;;;5029516;28;20080;-83
2021/09/16 09:44:09;;;;;;;9.95;2.55;;;;;;;;;;5032943;28;20072;-84
2021/09/16 09:46:48;;;;;;;7.82;1.63;;;;;;;;;;5030284;28;20049;-83
2021/09/16 09:49:15;;;;;;;8.90;2.00;;;;;;;;;;5032125;28;20611;-83
2021/09/16 09:51:54;;;;;;;6.43;1.85;;;;;;;;;;5032963;28;20116;-83
2021/09/16 09:54:27;;;;;;;5.03;1.50;;;;;;;;;;5035095;28;20029;-83
2021/09/16 09:56:59;;;;;;;6.30;1.70;;;;;;;;;;5034036;28;20095;-83
2021/09/16 09:59:25;;;;;;;6.05;1.67;;;;;;;;;;5035003;28;20032;-83
2021/09/16 10:02:01;;;;;;;6.55;1.88;;;;;;;;;;5032526;28;20025;-83
2021/09/16 10:04:28;;;;;;;10.82;2.45;;;;;;;;;;5033974;28;20024;-83
2021/09/16 10:06:57;;;;;;;8.40;2.03;;;;;;;;;;5034937;28;20052;-83
2021/09/16 10:09:22;;;;;;;8.10;2.47;;;;;;;;;;5033921;28;20099;-84
2021/09/16 10:11:48;;;;;;;9.55;2.40;;;;;;;;;;5034748;28;20025;-84
2021/09/16 10:14:14;;;;;;;7.72;2.60;;;;;;;;;;5033300;28;20037;-84
2021/09/16 10:16:39;;;;;;;8.02;3.42;;;;;;;;;;5033111;28;20045;-84
2021/09/16 10:19:05;;;;;;;7.63;2.63;;;;;;;;;;5033508;28;20056;-84
2021/09/16 10:21:31;;;;;;;7.28;2.30;;;;;;;;;;5035110;28;20022;-84
2021/09/16 10:23:57;;;;;;;10.68;3.10;;;;;;;;;;5035364;28;20034;-83
2021/09/16 10:26:33;;;;;;;11.73;3.13;;;;;;;;;;5033585;28;20080;-83
2021/09/16 10:28:59;;;;;;;12.45;4.05;;;;;;;;;;5034992;28;20025;-84
2021/09/16 10:31:25;;;;;;;11.55;4.30;;;;;;;;;;5034002;28;20023;-84
2021/09/16 10:33:50;;;;;;;15.10;3.80;;;;;;;;;;5034236;28;20018;-84
2021/09/16 10:36:16;;;;;;;11.73;4.17;;;;;;;;;;5033757;28;20028;-84
2021/09/16 10:38:45;;;;;;;10.50;4.10;;;;;;;;;;5035810;28;20287;-83
2021/09/16 10:41:28;;;;;;;11.77;3.53;;;;;;;;;;5035468;28;20071;-84
2021/09/16 10:43:59;;;;;;;12.32;3.97;;;;;;;;;;5033286;28;20729;-84
2021/09/16 10:46:27;;;;;;;14.40;4.25;;;;;;;;;;5034172;28;20108;-84
2021/09/16 10:48:53;;;;;;;11.98;3.63;;;;;;;;;;5034263;28;20029;-83
2021/09/16 10:51:39;;;;;;;11.23;4.60;;;;;;;;;;5032930;28;20025;-84
2021/09/16 10:54:27;;;;;;;13.95;5.28;;;;;;;;;;5035049;28;20529;-84
2021/09/16 10:57:01;;;;;;;11.60;4.85;;;;;;;;;;5033535;28;20029;-84
2021/09/16 10:59:44;;;;;;;13.50;5.25;;;;;;;;;;5033491;28;20057;-84
2021/09/16 11:02:10;;;;;;;9.27;4.03;;;;;;;;;;5031478;28;20026;-84
2021/09/16 11:05:05;;;;;;;6.63;3.87;;;;;;;;;;5034295;28;20072;-84
2021/09/16 11:07:34;;;;;;;7.50;3.90;;;;;;;;;;5030082;28;20267;-84
2021/09/16 11:10:20;;;;;;;10.00;4.53;;;;;;;;;;5032582;28;20032;-84
2021/09/16 11:12:46;;;;;;;14.20;5.38;;;;;;;;;;5033121;28;20048;-84
2021/09/16 11:15:13;;;;;;;8.38;3.97;;;;;;;;;;5031810;28;20491;-85
2021/09/16 11:17:40;;;;;;;9.32;4.45;;;;;;;;;;5032673;28;20063;-85
2021/09/16 11:20:05;;;;;;;7.90;4.00;;;;;;;;;;5033864;28;20021;-86
2021/09/16 11:22:30;;;;;;;9.02;4.00;;;;;;;;;;5033882;28;20022;-83
2021/09/16 11:24:57;;;;;;;7.50;4.00;;;;;;;;;;5031448;28;20017;-83
2021/09/16 11:27:29;;;;;;;8.75;3.80;;;;;;;;;;5032277;28;20260;-83
2021/09/16 11:29:55;;;;;;;7.65;3.88;;;;;;;;;;5033914;28;20037;-83
2021/09/16 11:32:21;;;;;;;7.63;4.00;;;;;;;;;;5035314;28;20025;-83
2021/09/16 11:34:53;;;;;;;11.77;4.80;;;;;;;;;;5032262;28;20440;-83
2021/09/16 11:37:22;;;;;;;10.80;4.80;;;;;;;;;;5032108;28;20022;-83
2021/09/16 11:39:55;;;;;;;9.43;4.78;;;;;;;;;;5032765;28;20021;-83
2021/09/16 11:42:20;;;;;;;10.45;5.05;;;;;;;;;;5032124;28;20025;-83
2021/09/16 11:44:59;;;;;;;8.68;4.35;;;;;;;;;;5033784;28;20029;-83
2021/09/16 11:47:25;;;;;;;9.90;4.68;;;;;;;;;;5032432;28;20034;-83
2021/09/16 11:49:51;;;;;;;9.93;4.78;;;;;;;;;;5031623;28;20037;-83
2021/09/16 11:52:19;;;;;;;8.87;4.77;;;;;;;;;;5033566;28;20025;-83
2021/09/16 11:55:01;;;;;;;9.30;4.78;;;;;;;;;;5031995;28;20461;-83
2021/09/16 11:57:26;;;;;;;;;;;;;;;;;;5032299;28;20413;-83
2021/09/16 11:59:51;;;;;;;7.60;4.03;;;;;;;;;;5032786;28;20807;-83
2021/09/16 12:02:16;;;;;;;8.37;4.17;;;;;;;;;;5033105;28;20025;-83
2021/09/16 12:04:41;;;;;;;6.28;3.72;;;;;;;;;;5031310;28;20025;-83
2021/09/16 12:07:07;;;;;;;4.77;3.50;;;;;;;;;;5032168;28;20662;-83
2021/09/16 12:09:32;;;;;;;5.32;3.50;;;;;;;;;;5032387;28;20268;-83
2021/09/16 12:12:01;;;;;;;7.67;4.30;;;;;;;;;;5030203;28;20028;-83
2021/09/16 12:14:26;;;;;;;4.97;3.42;;;;;;;;;;5032519;28;20431;-83
2021/09/16 12:17:00;;;;;;;6.60;4.07;;;;;;;;;;5031150;28;20048;-83
2021/09/16 12:19:25;;;;;;;6.85;3.63;;;;;;;;;;5031593;28;20033;-83
2021/09/16 12:21:54;;;;;;;9.63;4.57;;;;;;;;;;5030950;28;20113;-83
2021/09/16 12:24:23;;;;;;;11.50;4.47;;;;;;;;;;5031443;28;20112;-83
2021/09/16 12:26:52;;;;;;;7.65;4.50;;;;;;;;;;5030674;28;20503;-83
2021/09/16 12:29:25;;;;;;;7.35;4.07;;;;;;;;;;5033743;28;20029;-85
2021/09/16 12:31:57;;;;;;;9.35;4.88;;;;;;;;;;5032308;28;20022;-84
2021/09/16 12:34:22;;;;;;;8.32;4.43;;;;;;;;;;5031923;28;20040;-84
2021/09/16 12:37:04;;;;;;;8.10;4.70;;;;;;;;;;5030802;28;20018;-84
2021/09/16 12:39:40;;;;;;;11.65;4.75;;;;;;;;;;5031909;28;20132;-84
2021/09/16 12:42:08;;;;;;;8.60;4.20;;;;;;;;;;5030054;28;20135;-84
2021/09/16 12:44:34;;;;;;;6.07;4.15;;;;;;;;;;5032353;28;20025;-84
2021/09/16 12:47:16;;;;;;;8.30;4.68;;;;;;;;;;5032696;28;20028;-85
2021/09/16 12:49:41;;;;;;;7.25;4.35;;;;;;;;;;5031625;28;20411;-84
2021/09/16 12:52:11;;;;;;;9.67;3.90;;;;;;;;;;5031266;28;20027;-84
2021/09/16 12:54:42;;;;;;;8.35;4.45;;;;;;;;;;5031655;28;20109;-84
2021/09/16 12:57:07;;;;;;;12.30;4.13;;;;;;;;;;5030214;28;20022;-84
2021/09/16 12:59:32;;;;;;;8.20;2.88;;;;;;;;;;5030844;28;20276;-84
2021/09/16 13:02:16;;;;;;;4.15;2.58;;;;;;;;;;5031339;28;20018;-84
2021/09/16 13:04:53;;;;;;;6.57;3.67;;;;;;;;;;5030326;28;20025;-84
2021/09/16 13:07:19;;;;;;;9.82;3.65;;;;;;;;;;5031815;28;20049;-84
2021/09/16 13:09:44;;;;;;;4.65;2.35;;;;;;;;;;5030548;28;20485;-84
2021/09/16 13:12:11;;;;;;;6.38;2.67;;;;;;;;;;5030605;28;20026;-84
2021/09/16 13:14:36;;;;;;;3.65;2.50;;;;;;;;;;5029349;28;20028;-85
2021/09/16 13:17:01;;;;;;;5.00;2.10;;;;;;;;;;5029631;28;20509;-85
2021/09/16 13:19:26;;;;;;;7.00;2.40;;;;;;;;;;5029840;28;20288;-84
2021/09/16 13:21:52;;;;;;;4.40;1.87;;;;;;;;;;5031433;28;20084;-85
2021/09/16 13:24:17;;;;;;;4.15;1.90;;;;;;;;;;5029885;28;20071;-85
2021/09/16 13:26:43;;;;;;;4.50;1.90;;;;;;;;;;5029861;28;20441;-85
2021/09/16 13:29:09;;;;;;;3.35;1.98;;;;;;;;;;5031192;28;20030;-85
2021/09/16 13:31:34;;;;;;;4.40;2.40;;;;;;;;;;5030482;28;20096;-85
2021/09/16 13:33:59;;;;;;;3.17;2.00;;;;;;;;;;5029457;28;20034;-85
2021/09/16 13:36:24;;;;;;;3.43;1.90;;;;;;;;;;5029400;28;20314;-84
2021/09/16 13:38:50;;;;;;;5.82;2.00;;;;;;;;;;5030325;28;20315;-85
2021/09/16 13:41:15;;;;;;;4.57;2.45;;;;;;;;;;5029218;28;20018;-85
2021/09/16 13:43:40;;;;;;;8.55;2.25;;;;;;;;;;5029137;28;20052;-85
2021/09/16 13:46:06;;;;;;;2.80;2.08;;;;;;;;;;5028835;28;20017;-85
2021/09/16 13:48:31;;;;;;;4.70;1.90;;;;;;;;;;5029059;28;20025;-85
2021/09/16 13:50:57;;;;;;;5.47;1.80;;;;;;;;;;5028616;28;20267;-85
2021/09/16 13:53:22;;;;;;;4.68;1.92;;;;;;;;;;5030587;28;20040;-85
2021/09/16 13:55:48;;;;;;;3.08;1.63;;;;;;;;;;5031183;28;20029;-85
2021/09/16 13:58:13;;;;;;;4.28;2.25;;;;;;;;;;5029736;28;20456;-85
2021/09/16 14:00:38;;;;;;;5.78;2.20;;;;;;;;;;5029168;28;20366;-85
2021/09/16 14:03:04;;;;;;;7.25;3.10;;;;;;;;;;5029365;28;20097;-85
2021/09/16 14:05:30;;;;;;;7.32;2.45;;;;;;;;;;5029313;28;20033;-84
2021/09/16 14:07:55;;;;;;;5.25;2.80;;;;;;;;;;5029591;28;20021;-85
2021/09/16 14:10:20;;;;;;;3.33;2.10;;;;;;;;;;5030303;28;20035;-85
2021/09/16 14:12:46;;;;;;;4.23;2.17;;;;;;;;;;5028991;28;20030;-85
2021/09/16 14:15:11;;;;;;;4.05;2.50;;;;;;;;;;5029785;28;20113;-85
2021/09/16 14:17:36;;;;;;;4.55;2.30;;;;;;;;;;5029554;28;20053;-84
2021/09/16 14:20:02;;;;;;;5.93;2.50;;;;;;;;;;5030045;28;20049;-84
2021/09/16 14:22:28;;;;;;;3.55;2.60;;;;;;;;;;5030297;28;20352;-84
2021/09/16 14:24:53;;;;;;;6.05;3.58;;;;;;;;;;5030948;28;20030;-84
2021/09/16 14:27:18;;;;;;;4.75;2.80;;;;;;;;;;5030014;28;20018;-84
2021/09/16 14:29:46;;;;;;;7.27;3.10;;;;;;;;;;5029930;28;20477;-84
2021/09/16 14:32:13;;;;;;;6.85;3.00;;;;;;;;;;5031018;28;20387;-84